sensor_id;sensor_type;location;lat;lon;timestamp;P1;durP1;ratioP1;P2;durP2;ratioP2
75512;SDS011;64090;49.770;18.760;2022-12-20T00:01:32;4.30;;;2.80;;
75512;SDS011;64090;49.770;18.760;2022-12-20T00:04:36;5.10;;;3.70;;
75512;SDS011;64090;49.770;18.760;2022-12-20T00:07:39;3.90;;;2.60;;
75512;SDS011;64090;49.770;18.760;2022-12-20T00:10:43;5.60;;;2.50;;
75512;SDS011;64090;49.770;18.760;2022-12-20T00:13:47;6.20;;;2.80;;
75512;SDS011;64090;49.770;18.760;2022-12-20T00:16:50;5.70;;;3.20;;
75512;SDS011;64090;49.770;18.760;2022-12-20T00:19:53;4.10;;;3.00;;
75512;SDS011;64090;49.770;18.760;2022-12-20T00:22:56;4.50;;;2.40;;
75512;SDS011;64090;49.770;18.760;2022-12-20T00:26:00;4.80;;;3.10;;
75512;SDS011;64090;49.770;18.760;2022-12-20T00:29:04;5.20;;;3.20;;
75512;SDS011;64090;49.770;18.760;2022-12-20T00:32:08;5.60;;;3.90;;
75512;SDS011;64090;49.770;18.760;2022-12-20T00:35:11;4.90;;;3.10;;
75512;SDS011;64090;49.770;18.760;2022-12-20T00:38:14;5.20;;;3.20;;
75512;SDS011;64090;49.770;18.760;2022-12-20T00:41:18;3.00;;;2.70;;
75512;SDS011;64090;49.770;18.760;2022-12-20T00:44:23;5.20;;;3.10;;
75512;SDS011;64090;49.770;18.760;2022-12-20T00:47:25;5.80;;;2.20;;
75512;SDS011;64090;49.770;18.760;2022-12-20T00:50:28;5.20;;;2.50;;
75512;SDS011;64090;49.770;18.760;2022-12-20T00:53:31;7.10;;;2.90;;
75512;SDS011;64090;49.770;18.760;2022-12-20T00:56:35;7.10;;;3.50;;
75512;SDS011;64090;49.770;18.760;2022-12-20T00:59:38;6.80;;;3.90;;
75512;SDS011;64090;49.770;18.760;2022-12-20T01:02:41;4.20;;;2.80;;
75512;SDS011;64090;49.770;18.760;2022-12-20T01:08:57;5.80;;;3.50;;
75512;SDS011;64090;49.770;18.760;2022-12-20T01:12:00;5.40;;;2.40;;
75512;SDS011;64090;49.770;18.760;2022-12-20T01:15:03;6.30;;;3.20;;
75512;SDS011;64090;49.770;18.760;2022-12-20T01:18:07;5.50;;;3.40;;
75512;SDS011;64090;49.770;18.760;2022-12-20T01:21:12;4.10;;;2.80;;
75512;SDS011;64090;49.770;18.760;2022-12-20T01:24:17;4.80;;;4.20;;
75512;SDS011;64090;49.770;18.760;2022-12-20T01:27:21;4.90;;;2.70;;
75512;SDS011;64090;49.770;18.760;2022-12-20T01:30:24;3.70;;;3.00;;
75512;SDS011;64090;49.770;18.760;2022-12-20T01:33:27;4.50;;;2.30;;
75512;SDS011;64090;49.770;18.760;2022-12-20T01:36:31;4.80;;;2.50;;
75512;SDS011;64090;49.770;18.760;2022-12-20T01:39:36;7.70;;;3.80;;
75512;SDS011;64090;49.770;18.760;2022-12-20T01:42:38;4.00;;;2.00;;
75512;SDS011;64090;49.770;18.760;2022-12-20T01:45:41;3.40;;;2.10;;
75512;SDS011;64090;49.770;18.760;2022-12-20T01:48:51;4.60;;;2.30;;
75512;SDS011;64090;49.770;18.760;2022-12-20T01:51:57;6.70;;;3.50;;
75512;SDS011;64090;49.770;18.760;2022-12-20T01:55:06;6.50;;;4.10;;
75512;SDS011;64090;49.770;18.760;2022-12-20T01:58:15;4.30;;;2.90;;
75512;SDS011;64090;49.770;18.760;2022-12-20T02:01:22;6.70;;;3.60;;
75512;SDS011;64090;49.770;18.760;2022-12-20T02:04:26;4.90;;;2.30;;
75512;SDS011;64090;49.770;18.760;2022-12-20T02:07:30;6.30;;;2.80;;
75512;SDS011;64090;49.770;18.760;2022-12-20T02:30:45;4.00;;;3.00;;
75512;SDS011;64090;49.770;18.760;2022-12-20T02:33:50;5.30;;;3.10;;
75512;SDS011;64090;49.770;18.760;2022-12-20T02:36:55;5.00;;;2.60;;
75512;SDS011;64090;49.770;18.760;2022-12-20T02:39:58;5.60;;;2.80;;
75512;SDS011;64090;49.770;18.760;2022-12-20T02:43:02;7.00;;;3.50;;
75512;SDS011;64090;49.770;18.760;2022-12-20T02:46:28;4.50;;;1.60;;
75512;SDS011;64090;49.770;18.760;2022-12-20T02:49:36;5.00;;;2.20;;
75512;SDS011;64090;49.770;18.760;2022-12-20T02:52:42;4.20;;;3.40;;
75512;SDS011;64090;49.770;18.760;2022-12-20T02:56:07;6.20;;;3.60;;
75512;SDS011;64090;49.770;18.760;2022-12-20T02:59:27;6.20;;;3.10;;
75512;SDS011;64090;49.770;18.760;2022-12-20T03:02:38;5.70;;;3.00;;
75512;SDS011;64090;49.770;18.760;2022-12-20T03:06:05;4.60;;;2.90;;
75512;SDS011;64090;49.770;18.760;2022-12-20T03:09:08;4.40;;;2.40;;
75512;SDS011;64090;49.770;18.760;2022-12-20T03:12:12;6.00;;;2.20;;
75512;SDS011;64090;49.770;18.760;2022-12-20T03:15:17;5.40;;;3.00;;
75512;SDS011;64090;49.770;18.760;2022-12-20T03:18:20;5.80;;;2.60;;
75512;SDS011;64090;49.770;18.760;2022-12-20T03:21:23;5.50;;;2.30;;
75512;SDS011;64090;49.770;18.760;2022-12-20T03:24:26;4.10;;;2.80;;
75512;SDS011;64090;49.770;18.760;2022-12-20T03:27:29;6.00;;;2.70;;
75512;SDS011;64090;49.770;18.760;2022-12-20T03:30:31;5.40;;;2.60;;
75512;SDS011;64090;49.770;18.760;2022-12-20T03:33:34;5.30;;;3.30;;
75512;SDS011;64090;49.770;18.760;2022-12-20T03:36:37;5.10;;;3.20;;
75512;SDS011;64090;49.770;18.760;2022-12-20T03:39:40;7.60;;;2.80;;
75512;SDS011;64090;49.770;18.760;2022-12-20T03:42:43;6.50;;;3.60;;
75512;SDS011;64090;49.770;18.760;2022-12-20T03:45:46;3.60;;;2.10;;
75512;SDS011;64090;49.770;18.760;2022-12-20T03:48:49;3.80;;;2.40;;
75512;SDS011;64090;49.770;18.760;2022-12-20T03:51:52;3.20;;;2.20;;
75512;SDS011;64090;49.770;18.760;2022-12-20T03:54:55;5.30;;;2.50;;
75512;SDS011;64090;49.770;18.760;2022-12-20T03:57:58;4.90;;;2.40;;
75512;SDS011;64090;49.770;18.760;2022-12-20T04:01:01;8.20;;;3.30;;
75512;SDS011;64090;49.770;18.760;2022-12-20T04:04:04;5.20;;;2.50;;
75512;SDS011;64090;49.770;18.760;2022-12-20T04:07:07;5.10;;;2.90;;
75512;SDS011;64090;49.770;18.760;2022-12-20T04:10:11;3.50;;;2.40;;
75512;SDS011;64090;49.770;18.760;2022-12-20T04:13:13;6.30;;;2.90;;
75512;SDS011;64090;49.770;18.760;2022-12-20T04:16:18;4.70;;;2.30;;
75512;SDS011;64090;49.770;18.760;2022-12-20T04:19:23;4.40;;;2.80;;
75512;SDS011;64090;49.770;18.760;2022-12-20T04:22:26;4.10;;;2.40;;
75512;SDS011;64090;49.770;18.760;2022-12-20T04:25:29;5.20;;;2.50;;
75512;SDS011;64090;49.770;18.760;2022-12-20T04:28:32;5.00;;;2.80;;
75512;SDS011;64090;49.770;18.760;2022-12-20T04:31:36;6.20;;;3.20;;
75512;SDS011;64090;49.770;18.760;2022-12-20T04:34:39;4.00;;;2.50;;
75512;SDS011;64090;49.770;18.760;2022-12-20T04:37:42;5.10;;;3.50;;
75512;SDS011;64090;49.770;18.760;2022-12-20T04:40:47;5.10;;;3.40;;
75512;SDS011;64090;49.770;18.760;2022-12-20T04:43:52;3.90;;;2.00;;
75512;SDS011;64090;49.770;18.760;2022-12-20T04:46:58;5.50;;;4.50;;
75512;SDS011;64090;49.770;18.760;2022-12-20T04:50:02;4.20;;;3.20;;
75512;SDS011;64090;49.770;18.760;2022-12-20T04:53:05;7.00;;;3.10;;
75512;SDS011;64090;49.770;18.760;2022-12-20T04:56:27;3.50;;;2.90;;
75512;SDS011;64090;49.770;18.760;2022-12-20T04:59:30;3.90;;;2.70;;
75512;SDS011;64090;49.770;18.760;2022-12-20T05:02:33;6.60;;;2.90;;
75512;SDS011;64090;49.770;18.760;2022-12-20T05:05:36;5.30;;;3.20;;
75512;SDS011;64090;49.770;18.760;2022-12-20T05:08:40;6.20;;;3.00;;
75512;SDS011;64090;49.770;18.760;2022-12-20T05:11:43;6.20;;;2.30;;
75512;SDS011;64090;49.770;18.760;2022-12-20T05:14:46;4.70;;;2.60;;
75512;SDS011;64090;49.770;18.760;2022-12-20T05:17:48;6.70;;;3.50;;
75512;SDS011;64090;49.770;18.760;2022-12-20T05:20:53;7.00;;;3.60;;
75512;SDS011;64090;49.770;18.760;2022-12-20T05:24:17;4.50;;;2.30;;
75512;SDS011;64090;49.770;18.760;2022-12-20T05:27:38;5.70;;;3.00;;
75512;SDS011;64090;49.770;18.760;2022-12-20T05:30:41;7.10;;;3.80;;
75512;SDS011;64090;49.770;18.760;2022-12-20T05:33:44;5.50;;;3.20;;
75512;SDS011;64090;49.770;18.760;2022-12-20T05:36:47;6.40;;;3.00;;
75512;SDS011;64090;49.770;18.760;2022-12-20T05:39:50;7.60;;;4.20;;
75512;SDS011;64090;49.770;18.760;2022-12-20T05:42:53;6.90;;;3.10;;
75512;SDS011;64090;49.770;18.760;2022-12-20T05:45:56;7.20;;;3.30;;
75512;SDS011;64090;49.770;18.760;2022-12-20T05:48:59;5.40;;;3.20;;
75512;SDS011;64090;49.770;18.760;2022-12-20T05:52:02;5.10;;;2.70;;
75512;SDS011;64090;49.770;18.760;2022-12-20T05:55:05;5.90;;;3.20;;
75512;SDS011;64090;49.770;18.760;2022-12-20T05:58:08;5.90;;;3.10;;
75512;SDS011;64090;49.770;18.760;2022-12-20T06:01:14;6.60;;;3.90;;
75512;SDS011;64090;49.770;18.760;2022-12-20T06:04:17;3.00;;;2.00;;
75512;SDS011;64090;49.770;18.760;2022-12-20T06:07:20;3.30;;;2.20;;
75512;SDS011;64090;49.770;18.760;2022-12-20T06:10:23;6.60;;;3.00;;
75512;SDS011;64090;49.770;18.760;2022-12-20T06:13:26;4.00;;;1.90;;
75512;SDS011;64090;49.770;18.760;2022-12-20T06:16:29;3.70;;;2.40;;
75512;SDS011;64090;49.770;18.760;2022-12-20T06:19:35;4.70;;;3.10;;
75512;SDS011;64090;49.770;18.760;2022-12-20T06:22:38;3.90;;;1.90;;
75512;SDS011;64090;49.770;18.760;2022-12-20T06:25:41;6.70;;;3.00;;
75512;SDS011;64090;49.770;18.760;2022-12-20T06:28:45;6.10;;;3.70;;
75512;SDS011;64090;49.770;18.760;2022-12-20T06:31:48;5.80;;;2.80;;
75512;SDS011;64090;49.770;18.760;2022-12-20T06:34:51;5.20;;;2.40;;
75512;SDS011;64090;49.770;18.760;2022-12-20T06:37:54;4.80;;;3.10;;
75512;SDS011;64090;49.770;18.760;2022-12-20T06:40:57;5.50;;;3.90;;
75512;SDS011;64090;49.770;18.760;2022-12-20T06:44:00;6.40;;;2.90;;
75512;SDS011;64090;49.770;18.760;2022-12-20T06:47:03;5.80;;;3.90;;
75512;SDS011;64090;49.770;18.760;2022-12-20T06:50:06;4.70;;;2.60;;
75512;SDS011;64090;49.770;18.760;2022-12-20T06:53:09;5.20;;;2.80;;
75512;SDS011;64090;49.770;18.760;2022-12-20T06:56:12;4.90;;;2.70;;
75512;SDS011;64090;49.770;18.760;2022-12-20T06:59:15;5.70;;;3.20;;
75512;SDS011;64090;49.770;18.760;2022-12-20T07:02:18;6.70;;;3.90;;
75512;SDS011;64090;49.770;18.760;2022-12-20T07:05:21;4.00;;;2.30;;
75512;SDS011;64090;49.770;18.760;2022-12-20T07:08:25;5.60;;;2.60;;
75512;SDS011;64090;49.770;18.760;2022-12-20T07:11:27;8.00;;;3.70;;
75512;SDS011;64090;49.770;18.760;2022-12-20T07:14:30;8.60;;;3.30;;
75512;SDS011;64090;49.770;18.760;2022-12-20T07:17:33;6.60;;;2.90;;
75512;SDS011;64090;49.770;18.760;2022-12-20T07:20:36;7.20;;;3.60;;
75512;SDS011;64090;49.770;18.760;2022-12-20T07:23:39;4.80;;;2.10;;
75512;SDS011;64090;49.770;18.760;2022-12-20T07:26:45;6.00;;;3.30;;
75512;SDS011;64090;49.770;18.760;2022-12-20T07:29:48;7.30;;;3.50;;
75512;SDS011;64090;49.770;18.760;2022-12-20T07:32:51;7.00;;;3.20;;
75512;SDS011;64090;49.770;18.760;2022-12-20T07:36:03;6.00;;;2.70;;
75512;SDS011;64090;49.770;18.760;2022-12-20T07:39:08;6.70;;;3.30;;
75512;SDS011;64090;49.770;18.760;2022-12-20T07:42:12;4.40;;;2.30;;
75512;SDS011;64090;49.770;18.760;2022-12-20T07:45:15;5.80;;;2.90;;
75512;SDS011;64090;49.770;18.760;2022-12-20T07:48:18;7.60;;;4.30;;
75512;SDS011;64090;49.770;18.760;2022-12-20T07:51:24;6.80;;;2.80;;
75512;SDS011;64090;49.770;18.760;2022-12-20T07:54:34;5.90;;;2.70;;
75512;SDS011;64090;49.770;18.760;2022-12-20T07:57:43;6.40;;;2.50;;
75512;SDS011;64090;49.770;18.760;2022-12-20T08:00:53;5.90;;;3.10;;
75512;SDS011;64090;49.770;18.760;2022-12-20T08:04:05;5.50;;;3.00;;
75512;SDS011;64090;49.770;18.760;2022-12-20T08:07:14;5.20;;;2.70;;
75512;SDS011;64090;49.770;18.760;2022-12-20T08:10:17;5.70;;;2.70;;
75512;SDS011;64090;49.770;18.760;2022-12-20T08:13:21;5.40;;;2.70;;
75512;SDS011;64090;49.770;18.760;2022-12-20T08:16:24;5.50;;;2.70;;
75512;SDS011;64090;49.770;18.760;2022-12-20T08:19:27;8.30;;;4.60;;
75512;SDS011;64090;49.770;18.760;2022-12-20T08:22:34;7.20;;;3.20;;
75512;SDS011;64090;49.770;18.760;2022-12-20T08:25:37;8.40;;;4.50;;
75512;SDS011;64090;49.770;18.760;2022-12-20T08:31:46;4.50;;;2.60;;
75512;SDS011;64090;49.770;18.760;2022-12-20T08:34:52;10.60;;;4.10;;
75512;SDS011;64090;49.770;18.760;2022-12-20T08:37:55;4.80;;;2.60;;
75512;SDS011;64090;49.770;18.760;2022-12-20T08:41:05;6.30;;;3.50;;
75512;SDS011;64090;49.770;18.760;2022-12-20T08:44:12;7.20;;;3.80;;
75512;SDS011;64090;49.770;18.760;2022-12-20T08:47:15;6.10;;;3.00;;
75512;SDS011;64090;49.770;18.760;2022-12-20T08:50:17;9.00;;;3.90;;
75512;SDS011;64090;49.770;18.760;2022-12-20T08:53:21;7.00;;;2.90;;
75512;SDS011;64090;49.770;18.760;2022-12-20T08:56:24;6.40;;;2.60;;
75512;SDS011;64090;49.770;18.760;2022-12-20T08:59:26;3.90;;;2.20;;
75512;SDS011;64090;49.770;18.760;2022-12-20T09:02:29;9.10;;;4.40;;
75512;SDS011;64090;49.770;18.760;2022-12-20T09:05:33;7.40;;;3.20;;
75512;SDS011;64090;49.770;18.760;2022-12-20T09:08:36;6.80;;;3.50;;
75512;SDS011;64090;49.770;18.760;2022-12-20T09:11:40;5.40;;;2.80;;
75512;SDS011;64090;49.770;18.760;2022-12-20T09:14:43;8.20;;;3.90;;
75512;SDS011;64090;49.770;18.760;2022-12-20T09:17:46;7.10;;;4.00;;
75512;SDS011;64090;49.770;18.760;2022-12-20T09:20:49;8.80;;;4.20;;
75512;SDS011;64090;49.770;18.760;2022-12-20T09:23:52;6.30;;;4.10;;
75512;SDS011;64090;49.770;18.760;2022-12-20T09:26:56;4.10;;;2.20;;
75512;SDS011;64090;49.770;18.760;2022-12-20T09:29:59;8.50;;;4.50;;
75512;SDS011;64090;49.770;18.760;2022-12-20T09:33:02;4.80;;;2.30;;
75512;SDS011;64090;49.770;18.760;2022-12-20T09:36:18;6.70;;;3.20;;
75512;SDS011;64090;49.770;18.760;2022-12-20T09:39:23;5.30;;;2.50;;
75512;SDS011;64090;49.770;18.760;2022-12-20T09:42:26;7.70;;;3.80;;
75512;SDS011;64090;49.770;18.760;2022-12-20T09:45:31;5.10;;;2.60;;
75512;SDS011;64090;49.770;18.760;2022-12-20T09:48:38;9.40;;;3.70;;
75512;SDS011;64090;49.770;18.760;2022-12-20T09:58:34;7.20;;;3.80;;
75512;SDS011;64090;49.770;18.760;2022-12-20T10:01:47;6.30;;;3.00;;
75512;SDS011;64090;49.770;18.760;2022-12-20T10:04:52;8.80;;;4.20;;
75512;SDS011;64090;49.770;18.760;2022-12-20T10:18:23;7.30;;;3.90;;
75512;SDS011;64090;49.770;18.760;2022-12-20T10:21:54;9.60;;;6.00;;
75512;SDS011;64090;49.770;18.760;2022-12-20T10:25:18;6.90;;;3.30;;
75512;SDS011;64090;49.770;18.760;2022-12-20T10:28:29;6.80;;;4.00;;
75512;SDS011;64090;49.770;18.760;2022-12-20T10:31:35;6.80;;;3.80;;
75512;SDS011;64090;49.770;18.760;2022-12-20T10:34:39;5.20;;;3.00;;
75512;SDS011;64090;49.770;18.760;2022-12-20T10:41:13;5.00;;;2.80;;
75512;SDS011;64090;49.770;18.760;2022-12-20T10:44:25;5.30;;;3.40;;
75512;SDS011;64090;49.770;18.760;2022-12-20T10:47:39;6.90;;;3.90;;
75512;SDS011;64090;49.770;18.760;2022-12-20T10:50:47;10.00;;;5.20;;
75512;SDS011;64090;49.770;18.760;2022-12-20T10:54:29;7.60;;;3.50;;
75512;SDS011;64090;49.770;18.760;2022-12-20T10:57:50;4.50;;;2.90;;
75512;SDS011;64090;49.770;18.760;2022-12-20T11:01:02;8.50;;;4.30;;
75512;SDS011;64090;49.770;18.760;2022-12-20T11:04:20;7.50;;;3.70;;
75512;SDS011;64090;49.770;18.760;2022-12-20T11:07:34;7.20;;;3.70;;
75512;SDS011;64090;49.770;18.760;2022-12-20T11:10:37;5.80;;;3.70;;
75512;SDS011;64090;49.770;18.760;2022-12-20T11:13:40;5.10;;;3.10;;
75512;SDS011;64090;49.770;18.760;2022-12-20T11:16:43;9.20;;;5.40;;
75512;SDS011;64090;49.770;18.760;2022-12-20T11:33:40;6.90;;;3.70;;
75512;SDS011;64090;49.770;18.760;2022-12-20T11:40:32;5.20;;;2.90;;
75512;SDS011;64090;49.770;18.760;2022-12-20T11:50:39;9.80;;;5.00;;
75512;SDS011;64090;49.770;18.760;2022-12-20T11:57:00;7.50;;;4.50;;
75512;SDS011;64090;49.770;18.760;2022-12-20T12:00:10;5.80;;;3.30;;
75512;SDS011;64090;49.770;18.760;2022-12-20T12:06:34;8.40;;;4.30;;
75512;SDS011;64090;49.770;18.760;2022-12-20T12:09:54;9.80;;;5.20;;
75512;SDS011;64090;49.770;18.760;2022-12-20T12:13:05;6.40;;;4.10;;
75512;SDS011;64090;49.770;18.760;2022-12-20T12:16:19;8.50;;;5.50;;
75512;SDS011;64090;49.770;18.760;2022-12-20T12:19:29;7.00;;;3.70;;
75512;SDS011;64090;49.770;18.760;2022-12-20T12:22:34;8.40;;;5.00;;
75512;SDS011;64090;49.770;18.760;2022-12-20T12:25:39;8.70;;;4.70;;
75512;SDS011;64090;49.770;18.760;2022-12-20T12:28:42;6.90;;;3.60;;
75512;SDS011;64090;49.770;18.760;2022-12-20T12:32:03;9.40;;;5.00;;
75512;SDS011;64090;49.770;18.760;2022-12-20T12:35:24;6.60;;;3.60;;
75512;SDS011;64090;49.770;18.760;2022-12-20T12:45:34;5.80;;;3.10;;
75512;SDS011;64090;49.770;18.760;2022-12-20T12:51:54;6.60;;;4.30;;
75512;SDS011;64090;49.770;18.760;2022-12-20T12:55:00;9.80;;;5.30;;
75512;SDS011;64090;49.770;18.760;2022-12-20T13:04:57;6.00;;;3.20;;
75512;SDS011;64090;49.770;18.760;2022-12-20T13:08:45;9.20;;;5.70;;
75512;SDS011;64090;49.770;18.760;2022-12-20T13:11:54;7.70;;;3.90;;
75512;SDS011;64090;49.770;18.760;2022-12-20T13:18:34;5.40;;;3.20;;
75512;SDS011;64090;49.770;18.760;2022-12-20T13:21:37;6.60;;;3.50;;
75512;SDS011;64090;49.770;18.760;2022-12-20T13:34:36;10.70;;;6.20;;
75512;SDS011;64090;49.770;18.760;2022-12-20T13:38:04;10.10;;;5.70;;
75512;SDS011;64090;49.770;18.760;2022-12-20T13:44:40;9.40;;;5.20;;
75512;SDS011;64090;49.770;18.760;2022-12-20T13:47:51;8.10;;;4.40;;
75512;SDS011;64090;49.770;18.760;2022-12-20T13:50:58;6.20;;;3.70;;
75512;SDS011;64090;49.770;18.760;2022-12-20T13:54:03;7.40;;;4.10;;
75512;SDS011;64090;49.770;18.760;2022-12-20T14:00:22;7.10;;;3.60;;
75512;SDS011;64090;49.770;18.760;2022-12-20T14:03:28;9.00;;;6.00;;
75512;SDS011;64090;49.770;18.760;2022-12-20T14:06:32;8.20;;;3.80;;
75512;SDS011;64090;49.770;18.760;2022-12-20T14:09:36;7.90;;;4.60;;
75512;SDS011;64090;49.770;18.760;2022-12-20T14:12:41;10.30;;;4.60;;
75512;SDS011;64090;49.770;18.760;2022-12-20T14:15:47;8.10;;;5.10;;
75512;SDS011;64090;49.770;18.760;2022-12-20T14:19:04;8.50;;;5.10;;
75512;SDS011;64090;49.770;18.760;2022-12-20T14:22:11;12.90;;;5.40;;
75512;SDS011;64090;49.770;18.760;2022-12-20T14:25:15;7.20;;;2.90;;
75512;SDS011;64090;49.770;18.760;2022-12-20T14:28:39;10.10;;;5.10;;
75512;SDS011;64090;49.770;18.760;2022-12-20T14:31:46;9.40;;;4.30;;
75512;SDS011;64090;49.770;18.760;2022-12-20T14:34:50;9.50;;;5.50;;
75512;SDS011;64090;49.770;18.760;2022-12-20T14:37:56;8.60;;;4.10;;
75512;SDS011;64090;49.770;18.760;2022-12-20T14:41:01;7.90;;;4.60;;
75512;SDS011;64090;49.770;18.760;2022-12-20T14:44:16;9.00;;;4.90;;
75512;SDS011;64090;49.770;18.760;2022-12-20T14:47:26;6.60;;;2.70;;
75512;SDS011;64090;49.770;18.760;2022-12-20T14:50:31;5.50;;;3.10;;
75512;SDS011;64090;49.770;18.760;2022-12-20T14:53:39;7.70;;;4.50;;
75512;SDS011;64090;49.770;18.760;2022-12-20T14:56:47;6.80;;;2.70;;
75512;SDS011;64090;49.770;18.760;2022-12-20T15:03:16;9.50;;;5.00;;
75512;SDS011;64090;49.770;18.760;2022-12-20T15:09:39;10.30;;;3.70;;
75512;SDS011;64090;49.770;18.760;2022-12-20T15:12:41;5.60;;;3.00;;
75512;SDS011;64090;49.770;18.760;2022-12-20T15:15:45;16.60;;;7.40;;
75512;SDS011;64090;49.770;18.760;2022-12-20T15:18:49;10.30;;;5.90;;
75512;SDS011;64090;49.770;18.760;2022-12-20T15:21:53;6.10;;;3.00;;
75512;SDS011;64090;49.770;18.760;2022-12-20T15:24:56;5.30;;;2.50;;
75512;SDS011;64090;49.770;18.760;2022-12-20T15:27:59;7.10;;;3.40;;
75512;SDS011;64090;49.770;18.760;2022-12-20T15:31:02;9.40;;;4.00;;
75512;SDS011;64090;49.770;18.760;2022-12-20T15:34:12;6.70;;;3.50;;
75512;SDS011;64090;49.770;18.760;2022-12-20T15:37:20;9.40;;;4.40;;
75512;SDS011;64090;49.770;18.760;2022-12-20T15:40:22;8.00;;;4.20;;
75512;SDS011;64090;49.770;18.760;2022-12-20T15:43:25;10.10;;;5.80;;
75512;SDS011;64090;49.770;18.760;2022-12-20T15:46:28;9.50;;;4.60;;
75512;SDS011;64090;49.770;18.760;2022-12-20T15:49:31;8.10;;;4.10;;
75512;SDS011;64090;49.770;18.760;2022-12-20T15:52:34;11.10;;;6.80;;
75512;SDS011;64090;49.770;18.760;2022-12-20T15:55:37;4.90;;;3.40;;
75512;SDS011;64090;49.770;18.760;2022-12-20T15:58:41;6.80;;;2.90;;
75512;SDS011;64090;49.770;18.760;2022-12-20T16:01:44;9.40;;;4.50;;
75512;SDS011;64090;49.770;18.760;2022-12-20T16:04:47;21.40;;;7.80;;
75512;SDS011;64090;49.770;18.760;2022-12-20T16:07:52;11.50;;;6.20;;
75512;SDS011;64090;49.770;18.760;2022-12-20T16:10:54;11.50;;;7.30;;
75512;SDS011;64090;49.770;18.760;2022-12-20T16:13:58;10.10;;;5.40;;
75512;SDS011;64090;49.770;18.760;2022-12-20T16:17:01;11.50;;;6.60;;
75512;SDS011;64090;49.770;18.760;2022-12-20T16:20:04;9.50;;;5.60;;
75512;SDS011;64090;49.770;18.760;2022-12-20T16:23:12;6.00;;;3.80;;
75512;SDS011;64090;49.770;18.760;2022-12-20T16:26:20;8.10;;;3.30;;
75512;SDS011;64090;49.770;18.760;2022-12-20T16:29:24;5.10;;;3.20;;
75512;SDS011;64090;49.770;18.760;2022-12-20T16:32:27;9.40;;;4.60;;
75512;SDS011;64090;49.770;18.760;2022-12-20T16:35:31;5.20;;;2.40;;
75512;SDS011;64090;49.770;18.760;2022-12-20T16:38:35;6.90;;;3.30;;
75512;SDS011;64090;49.770;18.760;2022-12-20T16:41:39;7.10;;;3.10;;
75512;SDS011;64090;49.770;18.760;2022-12-20T16:44:43;5.70;;;3.20;;
75512;SDS011;64090;49.770;18.760;2022-12-20T16:47:47;7.80;;;4.10;;
75512;SDS011;64090;49.770;18.760;2022-12-20T16:50:51;8.40;;;4.50;;
75512;SDS011;64090;49.770;18.760;2022-12-20T16:53:55;11.20;;;6.00;;
75512;SDS011;64090;49.770;18.760;2022-12-20T16:57:20;9.50;;;4.20;;
75512;SDS011;64090;49.770;18.760;2022-12-20T17:00:24;9.70;;;5.20;;
75512;SDS011;64090;49.770;18.760;2022-12-20T17:03:28;8.90;;;3.60;;
75512;SDS011;64090;49.770;18.760;2022-12-20T17:06:31;5.40;;;3.50;;
75512;SDS011;64090;49.770;18.760;2022-12-20T17:09:34;8.90;;;4.80;;
75512;SDS011;64090;49.770;18.760;2022-12-20T17:12:37;16.90;;;8.20;;
75512;SDS011;64090;49.770;18.760;2022-12-20T17:15:41;11.20;;;6.00;;
75512;SDS011;64090;49.770;18.760;2022-12-20T17:18:45;12.30;;;7.80;;
75512;SDS011;64090;49.770;18.760;2022-12-20T17:21:49;12.80;;;7.40;;
75512;SDS011;64090;49.770;18.760;2022-12-20T17:25:21;10.60;;;5.10;;
75512;SDS011;64090;49.770;18.760;2022-12-20T17:28:28;16.60;;;9.30;;
75512;SDS011;64090;49.770;18.760;2022-12-20T17:31:32;17.60;;;8.60;;
75512;SDS011;64090;49.770;18.760;2022-12-20T17:34:40;14.70;;;7.90;;
75512;SDS011;64090;49.770;18.760;2022-12-20T17:37:44;12.60;;;6.50;;
75512;SDS011;64090;49.770;18.760;2022-12-20T17:40:47;19.40;;;8.90;;
75512;SDS011;64090;49.770;18.760;2022-12-20T17:43:51;18.50;;;9.40;;
75512;SDS011;64090;49.770;18.760;2022-12-20T17:46:55;18.90;;;8.50;;
75512;SDS011;64090;49.770;18.760;2022-12-20T17:49:58;16.30;;;7.90;;
75512;SDS011;64090;49.770;18.760;2022-12-20T17:53:02;17.50;;;8.70;;
75512;SDS011;64090;49.770;18.760;2022-12-20T17:56:08;8.20;;;4.60;;
75512;SDS011;64090;49.770;18.760;2022-12-20T17:59:13;11.40;;;5.30;;
75512;SDS011;64090;49.770;18.760;2022-12-20T18:02:20;15.90;;;7.70;;
75512;SDS011;64090;49.770;18.760;2022-12-20T18:05:26;14.20;;;7.00;;
75512;SDS011;64090;49.770;18.760;2022-12-20T18:08:29;14.60;;;7.30;;
75512;SDS011;64090;49.770;18.760;2022-12-20T18:11:32;13.90;;;7.70;;
75512;SDS011;64090;49.770;18.760;2022-12-20T18:14:35;16.00;;;8.90;;
75512;SDS011;64090;49.770;18.760;2022-12-20T18:17:38;29.50;;;14.50;;
75512;SDS011;64090;49.770;18.760;2022-12-20T18:20:42;30.90;;;16.00;;
75512;SDS011;64090;49.770;18.760;2022-12-20T18:23:45;39.20;;;18.80;;
75512;SDS011;64090;49.770;18.760;2022-12-20T18:26:49;19.70;;;11.10;;
75512;SDS011;64090;49.770;18.760;2022-12-20T18:29:52;18.40;;;11.20;;
75512;SDS011;64090;49.770;18.760;2022-12-20T18:32:55;32.80;;;16.50;;
75512;SDS011;64090;49.770;18.760;2022-12-20T18:36:08;24.30;;;12.50;;
75512;SDS011;64090;49.770;18.760;2022-12-20T18:39:16;24.20;;;12.90;;
75512;SDS011;64090;49.770;18.760;2022-12-20T18:42:19;18.80;;;10.50;;
75512;SDS011;64090;49.770;18.760;2022-12-20T18:45:21;21.90;;;11.10;;
75512;SDS011;64090;49.770;18.760;2022-12-20T18:48:24;21.40;;;11.90;;
75512;SDS011;64090;49.770;18.760;2022-12-20T18:51:28;22.00;;;11.00;;
75512;SDS011;64090;49.770;18.760;2022-12-20T18:54:33;14.40;;;8.20;;
75512;SDS011;64090;49.770;18.760;2022-12-20T18:57:35;14.80;;;7.10;;
75512;SDS011;64090;49.770;18.760;2022-12-20T19:00:38;18.70;;;7.50;;
75512;SDS011;64090;49.770;18.760;2022-12-20T19:03:41;18.40;;;7.20;;
75512;SDS011;64090;49.770;18.760;2022-12-20T19:06:45;29.80;;;14.10;;
75512;SDS011;64090;49.770;18.760;2022-12-20T19:09:48;35.30;;;17.80;;
75512;SDS011;64090;49.770;18.760;2022-12-20T19:12:51;23.80;;;13.60;;
75512;SDS011;64090;49.770;18.760;2022-12-20T19:16:04;38.80;;;18.90;;
75512;SDS011;64090;49.770;18.760;2022-12-20T19:19:07;26.40;;;11.30;;
75512;SDS011;64090;49.770;18.760;2022-12-20T19:22:11;32.70;;;15.80;;
75512;SDS011;64090;49.770;18.760;2022-12-20T19:25:13;19.60;;;10.20;;
75512;SDS011;64090;49.770;18.760;2022-12-20T19:28:16;22.30;;;11.90;;
75512;SDS011;64090;49.770;18.760;2022-12-20T19:31:20;27.10;;;13.30;;
75512;SDS011;64090;49.770;18.760;2022-12-20T19:34:27;31.50;;;15.10;;
75512;SDS011;64090;49.770;18.760;2022-12-20T19:37:30;29.90;;;13.80;;
75512;SDS011;64090;49.770;18.760;2022-12-20T19:40:39;22.40;;;10.60;;
75512;SDS011;64090;49.770;18.760;2022-12-20T19:43:42;31.60;;;13.80;;
75512;SDS011;64090;49.770;18.760;2022-12-20T19:46:46;22.40;;;10.30;;
75512;SDS011;64090;49.770;18.760;2022-12-20T19:49:49;25.10;;;13.90;;
75512;SDS011;64090;49.770;18.760;2022-12-20T19:52:52;20.40;;;8.70;;
75512;SDS011;64090;49.770;18.760;2022-12-20T19:55:55;28.60;;;14.50;;
75512;SDS011;64090;49.770;18.760;2022-12-20T19:58:59;31.40;;;16.20;;
75512;SDS011;64090;49.770;18.760;2022-12-20T20:02:03;29.70;;;14.70;;
75512;SDS011;64090;49.770;18.760;2022-12-20T20:05:07;19.90;;;10.20;;
75512;SDS011;64090;49.770;18.760;2022-12-20T20:08:17;28.50;;;15.00;;
75512;SDS011;64090;49.770;18.760;2022-12-20T20:11:20;25.50;;;13.30;;
75512;SDS011;64090;49.770;18.760;2022-12-20T20:14:23;48.80;;;18.60;;
75512;SDS011;64090;49.770;18.760;2022-12-20T20:17:26;43.30;;;20.80;;
75512;SDS011;64090;49.770;18.760;2022-12-20T20:20:28;39.40;;;16.80;;